sensor_id;sensor_type;location;lat;lon;timestamp;P1;durP1;ratioP1;P2;durP2;ratioP2
68455;SDS011;55437;55.046;38.838;2022-09-09T00:04:34;11.63;;;3.05;;
68455;SDS011;55437;55.046;38.838;2022-09-09T00:09:46;8.82;;;3.10;;
68455;SDS011;55437;55.046;38.838;2022-09-09T00:15:19;13.40;;;3.05;;
68455;SDS011;55437;55.046;38.838;2022-09-09T00:29:00;9.27;;;3.17;;
68455;SDS011;55437;55.046;38.838;2022-09-09T00:31:35;9.05;;;3.05;;
68455;SDS011;55437;55.046;38.838;2022-09-09T00:34:17;11.43;;;3.55;;
68455;SDS011;55437;55.046;38.838;2022-09-09T00:36:47;7.95;;;2.90;;
68455;SDS011;55437;55.046;38.838;2022-09-09T00:39:37;11.30;;;3.28;;
68455;SDS011;55437;55.046;38.838;2022-09-09T00:44:53;10.15;;;3.33;;
68455;SDS011;55437;55.046;38.838;2022-09-09T00:50:12;9.35;;;3.22;;
68455;SDS011;55437;55.046;38.838;2022-09-09T00:52:46;12.15;;;3.40;;
68455;SDS011;55437;55.046;38.838;2022-09-09T00:57:58;12.15;;;3.45;;
68455;SDS011;55437;55.046;38.838;2022-09-09T01:00:27;12.07;;;4.25;;
68455;SDS011;55437;55.046;38.838;2022-09-09T01:07:58;11.75;;;4.32;;
68455;SDS011;55437;55.046;38.838;2022-09-09T01:13:26;12.25;;;4.30;;
68455;SDS011;55437;55.046;38.838;2022-09-09T01:15:58;10.95;;;4.00;;
68455;SDS011;55437;55.046;38.838;2022-09-09T01:18:27;11.55;;;4.43;;
68455;SDS011;55437;55.046;38.838;2022-09-09T01:28:45;11.90;;;3.78;;
68455;SDS011;55437;55.046;38.838;2022-09-09T01:31:17;10.80;;;3.17;;
68455;SDS011;55437;55.046;38.838;2022-09-09T01:33:48;8.82;;;3.53;;
68455;SDS011;55437;55.046;38.838;2022-09-09T01:36:18;11.50;;;3.70;;
68455;SDS011;55437;55.046;38.838;2022-09-09T01:38:48;9.77;;;3.38;;
68455;SDS011;55437;55.046;38.838;2022-09-09T01:41:14;11.82;;;3.78;;
68455;SDS011;55437;55.046;38.838;2022-09-09T01:43:57;15.43;;;3.60;;
68455;SDS011;55437;55.046;38.838;2022-09-09T01:46:24;12.63;;;4.15;;
68455;SDS011;55437;55.046;38.838;2022-09-09T01:48:51;10.88;;;3.17;;
68455;SDS011;55437;55.046;38.838;2022-09-09T01:51:18;10.60;;;3.40;;
68455;SDS011;55437;55.046;38.838;2022-09-09T01:53:46;11.32;;;3.72;;
68455;SDS011;55437;55.046;38.838;2022-09-09T01:59:24;10.13;;;3.75;;
68455;SDS011;55437;55.046;38.838;2022-09-09T02:02:08;13.02;;;3.50;;
68455;SDS011;55437;55.046;38.838;2022-09-09T02:09:47;8.80;;;3.55;;
68455;SDS011;55437;55.046;38.838;2022-09-09T02:12:18;13.75;;;3.17;;
68455;SDS011;55437;55.046;38.838;2022-09-09T02:14:55;8.75;;;3.40;;
68455;SDS011;55437;55.046;38.838;2022-09-09T02:17:33;9.38;;;3.03;;
68455;SDS011;55437;55.046;38.838;2022-09-09T02:20:08;10.80;;;3.40;;
68455;SDS011;55437;55.046;38.838;2022-09-09T02:22:58;13.82;;;4.07;;
68455;SDS011;55437;55.046;38.838;2022-09-09T02:25:26;7.55;;;2.78;;
68455;SDS011;55437;55.046;38.838;2022-09-09T02:28:06;10.48;;;2.92;;
68455;SDS011;55437;55.046;38.838;2022-09-09T02:30:35;7.57;;;2.95;;
68455;SDS011;55437;55.046;38.838;2022-09-09T02:35:48;10.57;;;2.97;;
68455;SDS011;55437;55.046;38.838;2022-09-09T02:38:19;10.95;;;4.35;;
68455;SDS011;55437;55.046;38.838;2022-09-09T02:40:57;8.70;;;3.03;;
68455;SDS011;55437;55.046;38.838;2022-09-09T02:43:24;7.43;;;3.13;;
68455;SDS011;55437;55.046;38.838;2022-09-09T02:48:47;8.20;;;3.00;;
68455;SDS011;55437;55.046;38.838;2022-09-09T02:51:29;10.63;;;3.78;;
68455;SDS011;55437;55.046;38.838;2022-09-09T02:54:04;12.50;;;3.70;;
68455;SDS011;55437;55.046;38.838;2022-09-09T02:56:34;13.43;;;3.22;;
68455;SDS011;55437;55.046;38.838;2022-09-09T02:59:08;11.80;;;3.55;;
68455;SDS011;55437;55.046;38.838;2022-09-09T03:01:36;11.60;;;4.43;;
68455;SDS011;55437;55.046;38.838;2022-09-09T03:04:03;11.63;;;4.45;;
68455;SDS011;55437;55.046;38.838;2022-09-09T03:06:30;10.23;;;3.90;;
68455;SDS011;55437;55.046;38.838;2022-09-09T03:09:05;12.40;;;3.67;;
68455;SDS011;55437;55.046;38.838;2022-09-09T03:11:31;8.65;;;3.47;;
68455;SDS011;55437;55.046;38.838;2022-09-09T03:13:57;12.05;;;3.55;;
68455;SDS011;55437;55.046;38.838;2022-09-09T03:16:24;10.10;;;3.50;;
68455;SDS011;55437;55.046;38.838;2022-09-09T03:18:52;16.45;;;3.08;;
68455;SDS011;55437;55.046;38.838;2022-09-09T03:21:19;10.40;;;4.13;;
68455;SDS011;55437;55.046;38.838;2022-09-09T03:23:45;12.27;;;3.20;;
68455;SDS011;55437;55.046;38.838;2022-09-09T03:26:11;12.38;;;4.53;;
68455;SDS011;55437;55.046;38.838;2022-09-09T03:28:42;14.55;;;3.80;;
68455;SDS011;55437;55.046;38.838;2022-09-09T03:31:09;7.38;;;3.22;;
68455;SDS011;55437;55.046;38.838;2022-09-09T03:33:38;8.80;;;3.85;;
68455;SDS011;55437;55.046;38.838;2022-09-09T03:36:06;10.27;;;3.53;;
68455;SDS011;55437;55.046;38.838;2022-09-09T03:38:34;9.98;;;3.08;;
68455;SDS011;55437;55.046;38.838;2022-09-09T03:41:00;10.23;;;3.17;;
68455;SDS011;55437;55.046;38.838;2022-09-09T03:43:28;11.10;;;4.13;;
68455;SDS011;55437;55.046;38.838;2022-09-09T03:45:54;9.07;;;3.03;;
68455;SDS011;55437;55.046;38.838;2022-09-09T03:48:24;7.60;;;3.17;;
68455;SDS011;55437;55.046;38.838;2022-09-09T03:50:52;8.85;;;3.25;;
68455;SDS011;55437;55.046;38.838;2022-09-09T03:53:20;10.02;;;2.92;;
68455;SDS011;55437;55.046;38.838;2022-09-09T03:55:48;9.00;;;3.38;;
68455;SDS011;55437;55.046;38.838;2022-09-09T03:58:18;9.80;;;3.33;;
68455;SDS011;55437;55.046;38.838;2022-09-09T04:03:26;8.20;;;3.05;;
68455;SDS011;55437;55.046;38.838;2022-09-09T04:05:53;13.05;;;3.35;;
68455;SDS011;55437;55.046;38.838;2022-09-09T04:08:20;9.48;;;2.95;;
68455;SDS011;55437;55.046;38.838;2022-09-09T04:10:48;9.07;;;3.13;;
68455;SDS011;55437;55.046;38.838;2022-09-09T04:13:16;12.65;;;3.47;;
68455;SDS011;55437;55.046;38.838;2022-09-09T04:15:44;9.20;;;2.67;;
68455;SDS011;55437;55.046;38.838;2022-09-09T04:18:16;6.03;;;2.22;;
68455;SDS011;55437;55.046;38.838;2022-09-09T04:20:42;9.50;;;2.60;;
68455;SDS011;55437;55.046;38.838;2022-09-09T04:23:09;10.95;;;3.05;;
68455;SDS011;55437;55.046;38.838;2022-09-09T04:25:34;10.85;;;2.63;;
68455;SDS011;55437;55.046;38.838;2022-09-09T04:28:00;7.22;;;2.80;;
68455;SDS011;55437;55.046;38.838;2022-09-09T04:30:26;7.45;;;2.33;;
68455;SDS011;55437;55.046;38.838;2022-09-09T04:32:52;9.88;;;2.78;;
68455;SDS011;55437;55.046;38.838;2022-09-09T04:35:20;6.72;;;2.15;;
68455;SDS011;55437;55.046;38.838;2022-09-09T04:37:46;9.48;;;2.63;;
68455;SDS011;55437;55.046;38.838;2022-09-09T04:40:13;10.77;;;2.58;;
68455;SDS011;55437;55.046;38.838;2022-09-09T04:42:41;9.18;;;2.92;;
68455;SDS011;55437;55.046;38.838;2022-09-09T04:45:10;10.98;;;3.55;;
68455;SDS011;55437;55.046;38.838;2022-09-09T04:47:36;9.60;;;2.85;;
68455;SDS011;55437;55.046;38.838;2022-09-09T04:50:02;8.00;;;2.63;;
68455;SDS011;55437;55.046;38.838;2022-09-09T04:52:28;16.58;;;2.83;;
68455;SDS011;55437;55.046;38.838;2022-09-09T04:54:55;8.73;;;3.13;;
68455;SDS011;55437;55.046;38.838;2022-09-09T04:57:20;11.07;;;3.13;;
68455;SDS011;55437;55.046;38.838;2022-09-09T04:59:46;12.32;;;2.55;;
68455;SDS011;55437;55.046;38.838;2022-09-09T05:02:13;8.55;;;2.55;;
68455;SDS011;55437;55.046;38.838;2022-09-09T05:04:39;12.10;;;2.78;;
68455;SDS011;55437;55.046;38.838;2022-09-09T05:07:06;8.77;;;2.60;;
68455;SDS011;55437;55.046;38.838;2022-09-09T05:09:32;8.70;;;2.30;;
68455;SDS011;55437;55.046;38.838;2022-09-09T05:11:58;8.18;;;2.58;;
68455;SDS011;55437;55.046;38.838;2022-09-09T05:14:30;9.40;;;2.47;;
68455;SDS011;55437;55.046;38.838;2022-09-09T05:16:59;10.45;;;2.42;;
68455;SDS011;55437;55.046;38.838;2022-09-09T05:19:24;13.48;;;2.80;;
68455;SDS011;55437;55.046;38.838;2022-09-09T05:21:51;8.60;;;2.58;;
68455;SDS011;55437;55.046;38.838;2022-09-09T05:24:22;9.45;;;2.90;;
68455;SDS011;55437;55.046;38.838;2022-09-09T05:26:53;10.68;;;2.80;;
68455;SDS011;55437;55.046;38.838;2022-09-09T05:29:19;9.25;;;3.17;;
68455;SDS011;55437;55.046;38.838;2022-09-09T05:31:45;8.43;;;2.97;;
68455;SDS011;55437;55.046;38.838;2022-09-09T05:34:14;7.28;;;2.40;;
68455;SDS011;55437;55.046;38.838;2022-09-09T05:36:40;6.63;;;2.67;;
68455;SDS011;55437;55.046;38.838;2022-09-09T05:39:06;5.90;;;1.60;;
68455;SDS011;55437;55.046;38.838;2022-09-09T05:41:33;6.25;;;2.03;;
68455;SDS011;55437;55.046;38.838;2022-09-09T05:44:01;6.97;;;1.88;;
68455;SDS011;55437;55.046;38.838;2022-09-09T05:46:27;11.73;;;3.05;;
68455;SDS011;55437;55.046;38.838;2022-09-09T05:48:54;15.27;;;2.30;;
68455;SDS011;55437;55.046;38.838;2022-09-09T05:51:31;9.40;;;2.13;;
68455;SDS011;55437;55.046;38.838;2022-09-09T05:54:01;8.80;;;1.92;;
68455;SDS011;55437;55.046;38.838;2022-09-09T05:56:31;7.97;;;2.10;;
68455;SDS011;55437;55.046;38.838;2022-09-09T05:58:58;6.20;;;1.73;;
68455;SDS011;55437;55.046;38.838;2022-09-09T06:01:28;6.38;;;1.83;;
68455;SDS011;55437;55.046;38.838;2022-09-09T06:03:56;8.23;;;2.38;;
68455;SDS011;55437;55.046;38.838;2022-09-09T06:06:23;7.93;;;1.73;;
68455;SDS011;55437;55.046;38.838;2022-09-09T06:08:54;5.90;;;1.63;;
68455;SDS011;55437;55.046;38.838;2022-09-09T06:11:27;5.28;;;1.80;;
68455;SDS011;55437;55.046;38.838;2022-09-09T06:13:57;8.43;;;3.25;;
68455;SDS011;55437;55.046;38.838;2022-09-09T06:16:24;6.78;;;2.20;;
68455;SDS011;55437;55.046;38.838;2022-09-09T06:18:52;6.03;;;1.83;;
68455;SDS011;55437;55.046;38.838;2022-09-09T06:23:50;4.38;;;1.50;;
68455;SDS011;55437;55.046;38.838;2022-09-09T06:26:23;5.78;;;1.80;;
68455;SDS011;55437;55.046;38.838;2022-09-09T06:28:52;4.55;;;1.55;;
68455;SDS011;55437;55.046;38.838;2022-09-09T06:31:20;6.10;;;1.40;;
68455;SDS011;55437;55.046;38.838;2022-09-09T06:33:49;4.28;;;1.40;;
68455;SDS011;55437;55.046;38.838;2022-09-09T06:36:21;4.55;;;1.67;;
68455;SDS011;55437;55.046;38.838;2022-09-09T06:38:48;4.53;;;1.65;;
68455;SDS011;55437;55.046;38.838;2022-09-09T06:41:15;3.92;;;1.58;;
68455;SDS011;55437;55.046;38.838;2022-09-09T06:43:44;7.97;;;1.67;;
68455;SDS011;55437;55.046;38.838;2022-09-09T06:46:12;6.00;;;1.52;;
68455;SDS011;55437;55.046;38.838;2022-09-09T06:48:44;5.50;;;1.60;;
68455;SDS011;55437;55.046;38.838;2022-09-09T06:51:18;5.20;;;1.70;;
68455;SDS011;55437;55.046;38.838;2022-09-09T06:53:47;4.25;;;1.42;;
68455;SDS011;55437;55.046;38.838;2022-09-09T06:58:45;3.53;;;1.40;;
68455;SDS011;55437;55.046;38.838;2022-09-09T07:01:21;4.13;;;1.45;;
68455;SDS011;55437;55.046;38.838;2022-09-09T07:03:50;5.53;;;1.65;;
68455;SDS011;55437;55.046;38.838;2022-09-09T07:06:18;3.47;;;0.90;;
68455;SDS011;55437;55.046;38.838;2022-09-09T07:09:05;3.97;;;1.10;;
68455;SDS011;55437;55.046;38.838;2022-09-09T07:11:38;4.75;;;1.70;;
68455;SDS011;55437;55.046;38.838;2022-09-09T07:14:07;5.07;;;1.55;;
68455;SDS011;55437;55.046;38.838;2022-09-09T07:16:38;4.15;;;1.42;;
68455;SDS011;55437;55.046;38.838;2022-09-09T07:19:04;7.57;;;1.77;;
68455;SDS011;55437;55.046;38.838;2022-09-09T07:21:30;14.57;;;2.67;;
68455;SDS011;55437;55.046;38.838;2022-09-09T07:23:57;4.13;;;1.20;;
68455;SDS011;55437;55.046;38.838;2022-09-09T07:26:24;4.80;;;1.25;;
68455;SDS011;55437;55.046;38.838;2022-09-09T07:28:52;2.55;;;1.20;;
68455;SDS011;55437;55.046;38.838;2022-09-09T07:31:22;7.90;;;1.30;;
68455;SDS011;55437;55.046;38.838;2022-09-09T07:33:50;2.35;;;0.93;;
68455;SDS011;55437;55.046;38.838;2022-09-09T07:36:20;3.97;;;1.00;;
68455;SDS011;55437;55.046;38.838;2022-09-09T07:38:52;2.67;;;0.90;;
68455;SDS011;55437;55.046;38.838;2022-09-09T07:41:21;2.63;;;1.27;;
68455;SDS011;55437;55.046;38.838;2022-09-09T07:43:50;5.80;;;1.92;;
68455;SDS011;55437;55.046;38.838;2022-09-09T07:46:20;5.88;;;1.20;;
68455;SDS011;55437;55.046;38.838;2022-09-09T07:48:48;10.80;;;1.83;;
68455;SDS011;55437;55.046;38.838;2022-09-09T07:51:33;4.47;;;1.10;;
68455;SDS011;55437;55.046;38.838;2022-09-09T07:54:03;3.95;;;1.20;;
68455;SDS011;55437;55.046;38.838;2022-09-09T07:56:32;3.47;;;1.10;;
68455;SDS011;55437;55.046;38.838;2022-09-09T07:58:59;4.28;;;1.30;;
68455;SDS011;55437;55.046;38.838;2022-09-09T08:01:27;5.43;;;2.00;;
68455;SDS011;55437;55.046;38.838;2022-09-09T08:04:00;4.93;;;1.88;;
68455;SDS011;55437;55.046;38.838;2022-09-09T08:06:30;4.13;;;1.50;;
68455;SDS011;55437;55.046;38.838;2022-09-09T08:09:01;4.20;;;1.15;;
68455;SDS011;55437;55.046;38.838;2022-09-09T08:11:28;3.28;;;1.27;;
68455;SDS011;55437;55.046;38.838;2022-09-09T08:13:55;1.98;;;1.10;;
68455;SDS011;55437;55.046;38.838;2022-09-09T08:16:23;2.90;;;1.13;;
68455;SDS011;55437;55.046;38.838;2022-09-09T08:18:51;4.68;;;1.33;;
68455;SDS011;55437;55.046;38.838;2022-09-09T08:21:19;3.25;;;1.25;;
68455;SDS011;55437;55.046;38.838;2022-09-09T08:23:50;4.65;;;1.10;;
68455;SDS011;55437;55.046;38.838;2022-09-09T08:26:19;3.10;;;1.20;;
68455;SDS011;55437;55.046;38.838;2022-09-09T08:28:48;3.25;;;0.82;;
68455;SDS011;55437;55.046;38.838;2022-09-09T08:31:18;1.75;;;0.80;;
68455;SDS011;55437;55.046;38.838;2022-09-09T08:33:46;4.43;;;1.42;;
68455;SDS011;55437;55.046;38.838;2022-09-09T08:36:16;3.92;;;1.30;;
68455;SDS011;55437;55.046;38.838;2022-09-09T08:38:46;3.92;;;1.00;;
68455;SDS011;55437;55.046;38.838;2022-09-09T08:43:42;3.22;;;1.15;;
68455;SDS011;55437;55.046;38.838;2022-09-09T08:49:07;2.65;;;1.33;;
68455;SDS011;55437;55.046;38.838;2022-09-09T08:51:57;3.08;;;1.25;;
68455;SDS011;55437;55.046;38.838;2022-09-09T08:54:23;3.10;;;1.02;;
68455;SDS011;55437;55.046;38.838;2022-09-09T08:57:01;2.03;;;0.90;;
68455;SDS011;55437;55.046;38.838;2022-09-09T08:59:31;3.17;;;1.00;;
68455;SDS011;55437;55.046;38.838;2022-09-09T09:04:47;7.13;;;1.70;;
68455;SDS011;55437;55.046;38.838;2022-09-09T09:07:41;4.45;;;1.23;;
68455;SDS011;55437;55.046;38.838;2022-09-09T09:16:06;3.60;;;1.25;;
68455;SDS011;55437;55.046;38.838;2022-09-09T09:18:43;3.75;;;1.15;;
68455;SDS011;55437;55.046;38.838;2022-09-09T09:21:13;6.07;;;1.52;;
68455;SDS011;55437;55.046;38.838;2022-09-09T09:23:53;3.35;;;1.05;;
68455;SDS011;55437;55.046;38.838;2022-09-09T09:26:34;4.53;;;1.55;;
68455;SDS011;55437;55.046;38.838;2022-09-09T09:29:12;5.38;;;1.73;;
68455;SDS011;55437;55.046;38.838;2022-09-09T09:32:15;6.50;;;1.85;;
68455;SDS011;55437;55.046;38.838;2022-09-09T09:34:38;5.82;;;1.50;;
68455;SDS011;55437;55.046;38.838;2022-09-09T09:37:12;3.30;;;1.20;;
68455;SDS011;55437;55.046;38.838;2022-09-09T09:39:45;3.75;;;1.02;;
68455;SDS011;55437;55.046;38.838;2022-09-09T09:42:11;3.88;;;1.27;;
68455;SDS011;55437;55.046;38.838;2022-09-09T09:44:41;3.63;;;1.02;;
68455;SDS011;55437;55.046;38.838;2022-09-09T09:47:15;2.35;;;0.90;;
68455;SDS011;55437;55.046;38.838;2022-09-09T09:49:56;2.92;;;1.17;;
68455;SDS011;55437;55.046;38.838;2022-09-09T09:52:26;3.08;;;1.00;;
68455;SDS011;55437;55.046;38.838;2022-09-09T09:54:54;3.92;;;1.10;;
68455;SDS011;55437;55.046;38.838;2022-09-09T09:57:28;3.35;;;1.00;;
68455;SDS011;55437;55.046;38.838;2022-09-09T10:00:14;4.05;;;1.70;;
68455;SDS011;55437;55.046;38.838;2022-09-09T10:02:51;2.45;;;1.00;;
68455;SDS011;55437;55.046;38.838;2022-09-09T10:05:22;2.38;;;1.00;;
68455;SDS011;55437;55.046;38.838;2022-09-09T10:08:04;6.18;;;1.10;;
68455;SDS011;55437;55.046;38.838;2022-09-09T10:11:16;5.45;;;1.33;;
68455;SDS011;55437;55.046;38.838;2022-09-09T10:18:45;6.93;;;1.45;;
68455;SDS011;55437;55.046;38.838;2022-09-09T10:24:11;2.92;;;1.05;;
68455;SDS011;55437;55.046;38.838;2022-09-09T10:43:03;3.08;;;1.02;;
68455;SDS011;55437;55.046;38.838;2022-09-09T10:45:44;2.42;;;0.93;;
68455;SDS011;55437;55.046;38.838;2022-09-09T10:48:37;3.13;;;1.10;;
68455;SDS011;55437;55.046;38.838;2022-09-09T10:54:44;4.55;;;1.35;;
68455;SDS011;55437;55.046;38.838;2022-09-09T10:57:37;4.43;;;1.20;;
68455;SDS011;55437;55.046;38.838;2022-09-09T11:03:04;5.63;;;1.60;;
68455;SDS011;55437;55.046;38.838;2022-09-09T11:05:42;4.80;;;1.30;;
68455;SDS011;55437;55.046;38.838;2022-09-09T11:11:04;4.88;;;1.23;;
68455;SDS011;55437;55.046;38.838;2022-09-09T11:16:29;4.47;;;1.30;;
68455;SDS011;55437;55.046;38.838;2022-09-09T11:19:44;3.28;;;1.13;;
68455;SDS011;55437;55.046;38.838;2022-09-09T11:27:55;5.28;;;1.60;;
68455;SDS011;55437;55.046;38.838;2022-09-09T11:31:00;7.30;;;1.80;;
68455;SDS011;55437;55.046;38.838;2022-09-09T11:44:37;6.05;;;1.80;;
68455;SDS011;55437;55.046;38.838;2022-09-09T11:47:03;5.55;;;1.25;;
68455;SDS011;55437;55.046;38.838;2022-09-09T11:52:10;5.72;;;1.52;;
68455;SDS011;55437;55.046;38.838;2022-09-09T11:54:46;6.72;;;1.20;;
68455;SDS011;55437;55.046;38.838;2022-09-09T11:57:27;5.30;;;1.35;;
68455;SDS011;55437;55.046;38.838;2022-09-09T12:00:01;7.68;;;1.50;;
68455;SDS011;55437;55.046;38.838;2022-09-09T12:02:37;5.80;;;1.40;;
68455;SDS011;55437;55.046;38.838;2022-09-09T12:05:15;3.30;;;1.17;;
68455;SDS011;55437;55.046;38.838;2022-09-09T12:07:57;5.00;;;1.17;;
68455;SDS011;55437;55.046;38.838;2022-09-09T12:10:33;3.55;;;1.00;;
68455;SDS011;55437;55.046;38.838;2022-09-09T12:13:20;4.13;;;1.33;;
68455;SDS011;55437;55.046;38.838;2022-09-09T12:15:49;3.72;;;1.38;;
68455;SDS011;55437;55.046;38.838;2022-09-09T12:21:02;6.00;;;1.23;;
68455;SDS011;55437;55.046;38.838;2022-09-09T12:26:32;4.10;;;1.20;;
68455;SDS011;55437;55.046;38.838;2022-09-09T12:29:05;4.75;;;1.25;;
68455;SDS011;55437;55.046;38.838;2022-09-09T12:31:40;7.40;;;1.67;;
68455;SDS011;55437;55.046;38.838;2022-09-09T12:34:15;6.10;;;1.40;;
68455;SDS011;55437;55.046;38.838;2022-09-09T12:39:24;8.00;;;1.42;;
68455;SDS011;55437;55.046;38.838;2022-09-09T12:42:02;6.68;;;1.70;;
68455;SDS011;55437;55.046;38.838;2022-09-09T12:44:29;6.07;;;1.65;;
68455;SDS011;55437;55.046;38.838;2022-09-09T12:46:56;4.85;;;1.40;;
68455;SDS011;55437;55.046;38.838;2022-09-09T12:52:04;4.97;;;1.67;;
68455;SDS011;55437;55.046;38.838;2022-09-09T12:54:42;5.10;;;1.80;;
68455;SDS011;55437;55.046;38.838;2022-09-09T12:57:12;5.75;;;1.35;;
68455;SDS011;55437;55.046;38.838;2022-09-09T12:59:40;4.50;;;1.40;;
68455;SDS011;55437;55.046;38.838;2022-09-09T13:02:26;4.32;;;1.20;;
68455;SDS011;55437;55.046;38.838;2022-09-09T13:04:53;4.57;;;1.27;;
68455;SDS011;55437;55.046;38.838;2022-09-09T13:07:20;7.22;;;1.52;;
68455;SDS011;55437;55.046;38.838;2022-09-09T13:09:47;5.47;;;1.52;;
68455;SDS011;55437;55.046;38.838;2022-09-09T13:12:21;3.72;;;1.20;;
68455;SDS011;55437;55.046;38.838;2022-09-09T13:14:49;6.00;;;1.40;;
68455;SDS011;55437;55.046;38.838;2022-09-09T13:17:24;4.38;;;1.23;;
68455;SDS011;55437;55.046;38.838;2022-09-09T13:19:52;6.45;;;1.42;;
68455;SDS011;55437;55.046;38.838;2022-09-09T13:22:37;3.70;;;1.20;;
68455;SDS011;55437;55.046;38.838;2022-09-09T13:25:13;8.93;;;1.60;;
68455;SDS011;55437;55.046;38.838;2022-09-09T13:35:31;7.57;;;1.77;;
68455;SDS011;55437;55.046;38.838;2022-09-09T13:37:57;7.43;;;1.70;;
68455;SDS011;55437;55.046;38.838;2022-09-09T13:40:25;9.43;;;2.40;;
68455;SDS011;55437;55.046;38.838;2022-09-09T13:42:51;9.63;;;2.40;;
68455;SDS011;55437;55.046;38.838;2022-09-09T13:47:47;5.78;;;1.92;;
68455;SDS011;55437;55.046;38.838;2022-09-09T13:50:28;6.10;;;1.70;;
68455;SDS011;55437;55.046;38.838;2022-09-09T13:52:55;5.13;;;1.70;;
68455;SDS011;55437;55.046;38.838;2022-09-09T13:55:24;6.20;;;1.90;;
68455;SDS011;55437;55.046;38.838;2022-09-09T13:58:01;4.60;;;1.90;;
68455;SDS011;55437;55.046;38.838;2022-09-09T14:00:29;6.32;;;1.30;;
68455;SDS011;55437;55.046;38.838;2022-09-09T14:02:57;4.40;;;1.40;;
68455;SDS011;55437;55.046;38.838;2022-09-09T14:05:27;5.43;;;1.67;;
68455;SDS011;55437;55.046;38.838;2022-09-09T14:07:54;6.15;;;1.25;;
68455;SDS011;55437;55.046;38.838;2022-09-09T14:10:20;6.10;;;1.23;;
68455;SDS011;55437;55.046;38.838;2022-09-09T14:12:47;4.20;;;1.13;;
68455;SDS011;55437;55.046;38.838;2022-09-09T14:15:13;4.70;;;1.33;;
68455;SDS011;55437;55.046;38.838;2022-09-09T14:17:39;3.50;;;1.30;;
68455;SDS011;55437;55.046;38.838;2022-09-09T14:20:05;6.57;;;1.33;;
68455;SDS011;55437;55.046;38.838;2022-09-09T14:22:34;4.28;;;1.15;;
68455;SDS011;55437;55.046;38.838;2022-09-09T14:25:01;3.15;;;1.13;;
68455;SDS011;55437;55.046;38.838;2022-09-09T14:27:28;4.30;;;1.23;;
68455;SDS011;55437;55.046;38.838;2022-09-09T14:29:55;3.33;;;1.38;;
68455;SDS011;55437;55.046;38.838;2022-09-09T14:32:21;7.70;;;1.45;;
68455;SDS011;55437;55.046;38.838;2022-09-09T14:34:47;3.90;;;1.33;;
68455;SDS011;55437;55.046;38.838;2022-09-09T14:37:15;8.88;;;2.03;;
68455;SDS011;55437;55.046;38.838;2022-09-09T14:39:42;6.90;;;1.73;;
68455;SDS011;55437;55.046;38.838;2022-09-09T14:42:09;4.97;;;1.73;;
68455;SDS011;55437;55.046;38.838;2022-09-09T14:44:37;4.28;;;1.80;;
68455;SDS011;55437;55.046;38.838;2022-09-09T14:47:06;7.65;;;1.75;;
68455;SDS011;55437;55.046;38.838;2022-09-09T14:49:35;8.40;;;1.70;;
68455;SDS011;55437;55.046;38.838;2022-09-09T14:52:02;4.75;;;1.65;;
68455;SDS011;55437;55.046;38.838;2022-09-09T14:54:31;4.57;;;1.60;;
68455;SDS011;55437;55.046;38.838;2022-09-09T14:56:57;6.20;;;1.50;;
68455;SDS011;55437;55.046;38.838;2022-09-09T14:59:24;8.98;;;2.00;;
68455;SDS011;55437;55.046;38.838;2022-09-09T15:01:49;7.70;;;1.60;;
68455;SDS011;55437;55.046;38.838;2022-09-09T15:04:15;5.22;;;1.60;;
68455;SDS011;55437;55.046;38.838;2022-09-09T15:06:42;5.20;;;1.60;;
68455;SDS011;55437;55.046;38.838;2022-09-09T15:09:09;4.30;;;1.40;;
68455;SDS011;55437;55.046;38.838;2022-09-09T15:11:36;7.18;;;1.90;;
68455;SDS011;55437;55.046;38.838;2022-09-09T15:14:03;6.10;;;2.20;;
68455;SDS011;55437;55.046;38.838;2022-09-09T15:16:30;7.85;;;2.53;;
68455;SDS011;55437;55.046;38.838;2022-09-09T15:18:58;9.07;;;2.83;;
68455;SDS011;55437;55.046;38.838;2022-09-09T15:21:29;9.32;;;3.08;;
68455;SDS011;55437;55.046;38.838;2022-09-09T15:23:56;9.90;;;2.33;;
68455;SDS011;55437;55.046;38.838;2022-09-09T15:26:23;8.75;;;2.70;;
68455;SDS011;55437;55.046;38.838;2022-09-09T15:28:49;9.40;;;2.70;;
68455;SDS011;55437;55.046;38.838;2022-09-09T15:33:49;8.35;;;2.10;;
68455;SDS011;55437;55.046;38.838;2022-09-09T15:36:18;9.18;;;1.92;;
68455;SDS011;55437;55.046;38.838;2022-09-09T15:38:44;10.07;;;2.72;;
68455;SDS011;55437;55.046;38.838;2022-09-09T15:41:11;7.38;;;2.33;;
68455;SDS011;55437;55.046;38.838;2022-09-09T15:43:37;6.93;;;2.15;;
68455;SDS011;55437;55.046;38.838;2022-09-09T15:46:19;13.93;;;2.30;;
68455;SDS011;55437;55.046;38.838;2022-09-09T15:51:32;10.50;;;2.70;;
68455;SDS011;55437;55.046;38.838;2022-09-09T15:53:58;10.00;;;2.53;;
68455;SDS011;55437;55.046;38.838;2022-09-09T15:56:25;7.70;;;2.60;;
68455;SDS011;55437;55.046;38.838;2022-09-09T15:58:52;12.00;;;3.00;;
68455;SDS011;55437;55.046;38.838;2022-09-09T16:01:18;9.15;;;2.92;;
68455;SDS011;55437;55.046;38.838;2022-09-09T16:03:44;10.43;;;3.63;;
68455;SDS011;55437;55.046;38.838;2022-09-09T16:06:16;8.88;;;2.55;;
68455;SDS011;55437;55.046;38.838;2022-09-09T16:08:43;9.27;;;2.90;;
68455;SDS011;55437;55.046;38.838;2022-09-09T16:11:12;10.57;;;3.47;;
68455;SDS011;55437;55.046;38.838;2022-09-09T16:13:41;11.90;;;3.53;;
68455;SDS011;55437;55.046;38.838;2022-09-09T16:16:08;10.98;;;3.65;;
68455;SDS011;55437;55.046;38.838;2022-09-09T16:18:36;14.60;;;3.85;;
68455;SDS011;55437;55.046;38.838;2022-09-09T16:21:04;12.50;;;4.25;;
68455;SDS011;55437;55.046;38.838;2022-09-09T16:23:31;14.05;;;4.43;;
68455;SDS011;55437;55.046;38.838;2022-09-09T16:25:57;15.38;;;4.50;;
68455;SDS011;55437;55.046;38.838;2022-09-09T16:28:23;9.77;;;3.30;;
68455;SDS011;55437;55.046;38.838;2022-09-09T16:30:49;11.15;;;3.58;;
68455;SDS011;55437;55.046;38.838;2022-09-09T16:33:15;12.35;;;3.65;;
68455;SDS011;55437;55.046;38.838;2022-09-09T16:35:42;11.93;;;3.83;;
68455;SDS011;55437;55.046;38.838;2022-09-09T16:38:07;12.48;;;4.15;;
68455;SDS011;55437;55.046;38.838;2022-09-09T16:40:34;20.63;;;8.93;;
68455;SDS011;55437;55.046;38.838;2022-09-09T16:43:00;29.90;;;13.73;;
68455;SDS011;55437;55.046;38.838;2022-09-09T16:45:26;20.38;;;5.43;;
68455;SDS011;55437;55.046;38.838;2022-09-09T16:47:52;13.32;;;4.85;;
68455;SDS011;55437;55.046;38.838;2022-09-09T16:50:18;17.05;;;4.88;;
68455;SDS011;55437;55.046;38.838;2022-09-09T16:52:44;14.10;;;4.00;;
68455;SDS011;55437;55.046;38.838;2022-09-09T16:55:10;18.38;;;7.68;;
68455;SDS011;55437;55.046;38.838;2022-09-09T16:57:36;16.35;;;7.55;;
68455;SDS011;55437;55.046;38.838;2022-09-09T17:00:03;15.52;;;6.97;;
68455;SDS011;55437;55.046;38.838;2022-09-09T17:02:32;19.77;;;6.32;;
68455;SDS011;55437;55.046;38.838;2022-09-09T17:04:57;17.88;;;7.28;;
68455;SDS011;55437;55.046;38.838;2022-09-09T17:07:24;20.83;;;6.78;;
68455;SDS011;55437;55.046;38.838;2022-09-09T17:09:50;20.17;;;6.18;;
68455;SDS011;55437;55.046;38.838;2022-09-09T17:12:16;25.88;;;11.10;;
68455;SDS011;55437;55.046;38.838;2022-09-09T17:14:42;15.15;;;6.47;;
68455;SDS011;55437;55.046;38.838;2022-09-09T17:17:08;14.32;;;6.57;;
68455;SDS011;55437;55.046;38.838;2022-09-09T17:19:34;13.82;;;5.82;;
68455;SDS011;55437;55.046;38.838;2022-09-09T17:21:59;12.85;;;5.38;;
68455;SDS011;55437;55.046;38.838;2022-09-09T17:24:26;13.32;;;6.03;;
68455;SDS011;55437;55.046;38.838;2022-09-09T17:26:54;14.30;;;5.57;;
68455;SDS011;55437;55.046;38.838;2022-09-09T17:29:20;14.10;;;5.88;;
68455;SDS011;55437;55.046;38.838;2022-09-09T17:31:47;16.15;;;7.32;;